Terminal Aerodrome Forecast
Issued by NWS St Louis, MO

Home | Current Version | Previous Version | Text Only | Print | Product List | Glossary On
Versions: 1 2 3 4 5 6 7 8 9 10 11 12 13 14 15 16 17 18 19 20 21 22 23 24 25 26 27 28 29 30 31 32 33 34 35
000
FTUS43 KLSX 030600 AAA
TAFSTL
TAF AMD
KSTL 030605Z 0306/0412 16009KT P6SM BKN030
     FM030700 16010KT 4SM -FZRA BR SCT008 OVC020
     FM031200 18012KT 6SM -RA BR OVC009
     FM032200 25006KT 6SM -DZ BR OVC009
     FM040300 31010KT P6SM OVC009
     FM040700 34008KT P6SM SCT012 BKN035=

USA.gov is the U.S. government's official web portal to all federal, state and local government web resources and services.